sensor_id;sensor_type;location;lat;lon;timestamp;P1;durP1;ratioP1;P2;durP2;ratioP2
34019;SDS011;20895;51.034;3.742;2022-09-17T00:01:41;6.57;;;1.73;;
34019;SDS011;20895;51.034;3.742;2022-09-17T00:04:06;5.47;;;1.08;;
34019;SDS011;20895;51.034;3.742;2022-09-17T00:06:33;11.40;;;1.80;;
34019;SDS011;20895;51.034;3.742;2022-09-17T00:08:59;4.00;;;0.95;;
34019;SDS011;20895;51.034;3.742;2022-09-17T00:11:25;6.03;;;1.23;;
34019;SDS011;20895;51.034;3.742;2022-09-17T00:13:52;10.95;;;1.42;;
34019;SDS011;20895;51.034;3.742;2022-09-17T00:16:37;8.73;;;1.30;;
34019;SDS011;20895;51.034;3.742;2022-09-17T00:19:03;13.82;;;2.20;;
34019;SDS011;20895;51.034;3.742;2022-09-17T00:21:29;10.10;;;1.50;;
34019;SDS011;20895;51.034;3.742;2022-09-17T00:23:56;7.70;;;1.27;;
34019;SDS011;20895;51.034;3.742;2022-09-17T00:26:21;12.40;;;2.20;;
34019;SDS011;20895;51.034;3.742;2022-09-17T00:28:50;9.05;;;1.98;;
34019;SDS011;20895;51.034;3.742;2022-09-17T00:31:16;7.97;;;1.95;;
34019;SDS011;20895;51.034;3.742;2022-09-17T00:33:41;6.50;;;1.45;;
34019;SDS011;20895;51.034;3.742;2022-09-17T00:36:07;11.57;;;2.53;;
34019;SDS011;20895;51.034;3.742;2022-09-17T00:38:33;9.70;;;1.30;;
34019;SDS011;20895;51.034;3.742;2022-09-17T00:40:58;9.63;;;1.98;;
34019;SDS011;20895;51.034;3.742;2022-09-17T00:43:58;8.15;;;1.35;;
34019;SDS011;20895;51.034;3.742;2022-09-17T00:48:44;8.57;;;1.58;;
34019;SDS011;20895;51.034;3.742;2022-09-17T00:51:10;9.23;;;2.63;;
34019;SDS011;20895;51.034;3.742;2022-09-17T00:53:38;16.08;;;2.47;;
34019;SDS011;20895;51.034;3.742;2022-09-17T00:56:05;11.07;;;2.00;;
34019;SDS011;20895;51.034;3.742;2022-09-17T00:58:31;13.07;;;3.10;;
34019;SDS011;20895;51.034;3.742;2022-09-17T01:00:57;14.50;;;2.08;;
34019;SDS011;20895;51.034;3.742;2022-09-17T01:03:23;13.10;;;3.30;;
34019;SDS011;20895;51.034;3.742;2022-09-17T01:06:07;12.10;;;2.58;;
34019;SDS011;20895;51.034;3.742;2022-09-17T01:21:28;14.30;;;2.92;;
34019;SDS011;20895;51.034;3.742;2022-09-17T01:31:57;16.63;;;2.95;;
34019;SDS011;20895;51.034;3.742;2022-09-17T01:34:25;12.85;;;2.58;;
34019;SDS011;20895;51.034;3.742;2022-09-17T01:47:15;12.50;;;3.03;;
34019;SDS011;20895;51.034;3.742;2022-09-17T01:49:41;20.42;;;3.45;;
34019;SDS011;20895;51.034;3.742;2022-09-17T01:52:08;13.68;;;2.97;;
34019;SDS011;20895;51.034;3.742;2022-09-17T01:55:08;16.27;;;3.05;;
34019;SDS011;20895;51.034;3.742;2022-09-17T01:57:28;16.65;;;3.70;;
34019;SDS011;20895;51.034;3.742;2022-09-17T02:00:02;12.55;;;3.10;;
34019;SDS011;20895;51.034;3.742;2022-09-17T02:02:32;14.10;;;2.92;;
34019;SDS011;20895;51.034;3.742;2022-09-17T02:07:55;16.58;;;3.50;;
34019;SDS011;20895;51.034;3.742;2022-09-17T02:10:23;10.27;;;3.13;;
34019;SDS011;20895;51.034;3.742;2022-09-17T02:13:10;16.58;;;2.30;;
34019;SDS011;20895;51.034;3.742;2022-09-17T02:20:32;9.93;;;2.17;;
34019;SDS011;20895;51.034;3.742;2022-09-17T02:23:00;13.98;;;3.05;;
34019;SDS011;20895;51.034;3.742;2022-09-17T02:25:33;16.48;;;2.67;;
34019;SDS011;20895;51.034;3.742;2022-09-17T02:28:11;19.08;;;2.58;;
34019;SDS011;20895;51.034;3.742;2022-09-17T02:30:38;15.35;;;2.60;;
34019;SDS011;20895;51.034;3.742;2022-09-17T02:33:05;15.90;;;3.90;;
34019;SDS011;20895;51.034;3.742;2022-09-17T02:35:31;11.10;;;2.60;;
34019;SDS011;20895;51.034;3.742;2022-09-17T02:37:57;12.43;;;2.65;;
34019;SDS011;20895;51.034;3.742;2022-09-17T02:40:23;15.60;;;2.50;;
34019;SDS011;20895;51.034;3.742;2022-09-17T02:50:48;13.82;;;2.60;;
34019;SDS011;20895;51.034;3.742;2022-09-17T03:01:13;16.30;;;3.47;;
34019;SDS011;20895;51.034;3.742;2022-09-17T03:03:42;18.42;;;2.70;;
34019;SDS011;20895;51.034;3.742;2022-09-17T03:06:08;15.80;;;3.47;;
34019;SDS011;20895;51.034;3.742;2022-09-17T03:08:35;17.75;;;3.33;;
34019;SDS011;20895;51.034;3.742;2022-09-17T03:11:01;16.92;;;3.65;;
34019;SDS011;20895;51.034;3.742;2022-09-17T03:13:26;23.98;;;5.68;;
34019;SDS011;20895;51.034;3.742;2022-09-17T03:15:51;14.05;;;2.70;;
34019;SDS011;20895;51.034;3.742;2022-09-17T03:18:17;12.88;;;3.38;;
34019;SDS011;20895;51.034;3.742;2022-09-17T03:20:42;15.80;;;2.60;;
34019;SDS011;20895;51.034;3.742;2022-09-17T03:23:07;14.68;;;2.60;;
34019;SDS011;20895;51.034;3.742;2022-09-17T03:25:33;14.60;;;2.78;;
34019;SDS011;20895;51.034;3.742;2022-09-17T03:27:58;17.75;;;2.58;;
34019;SDS011;20895;51.034;3.742;2022-09-17T03:30:23;12.73;;;2.58;;
34019;SDS011;20895;51.034;3.742;2022-09-17T03:32:48;14.88;;;2.38;;
34019;SDS011;20895;51.034;3.742;2022-09-17T03:35:14;15.27;;;3.75;;
34019;SDS011;20895;51.034;3.742;2022-09-17T03:37:39;12.88;;;3.38;;
34019;SDS011;20895;51.034;3.742;2022-09-17T03:40:05;13.05;;;3.92;;
34019;SDS011;20895;51.034;3.742;2022-09-17T03:42:30;13.23;;;3.40;;
34019;SDS011;20895;51.034;3.742;2022-09-17T03:44:55;11.18;;;2.53;;
34019;SDS011;20895;51.034;3.742;2022-09-17T03:47:21;12.43;;;2.20;;
34019;SDS011;20895;51.034;3.742;2022-09-17T03:49:46;11.73;;;3.00;;
34019;SDS011;20895;51.034;3.742;2022-09-17T03:52:11;10.77;;;2.28;;
34019;SDS011;20895;51.034;3.742;2022-09-17T03:54:37;14.18;;;2.50;;
34019;SDS011;20895;51.034;3.742;2022-09-17T03:57:02;10.65;;;1.88;;
34019;SDS011;20895;51.034;3.742;2022-09-17T03:59:28;9.23;;;3.10;;
34019;SDS011;20895;51.034;3.742;2022-09-17T04:01:53;11.13;;;2.67;;
34019;SDS011;20895;51.034;3.742;2022-09-17T04:04:19;7.97;;;2.38;;
34019;SDS011;20895;51.034;3.742;2022-09-17T04:06:44;9.00;;;1.85;;
34019;SDS011;20895;51.034;3.742;2022-09-17T04:09:09;10.30;;;2.20;;
34019;SDS011;20895;51.034;3.742;2022-09-17T04:11:34;9.30;;;2.05;;
34019;SDS011;20895;51.034;3.742;2022-09-17T04:13:59;14.75;;;2.22;;
34019;SDS011;20895;51.034;3.742;2022-09-17T04:16:25;7.55;;;1.63;;
34019;SDS011;20895;51.034;3.742;2022-09-17T04:18:50;9.18;;;1.77;;
34019;SDS011;20895;51.034;3.742;2022-09-17T04:21:15;8.70;;;2.10;;
34019;SDS011;20895;51.034;3.742;2022-09-17T04:23:40;9.10;;;1.63;;
34019;SDS011;20895;51.034;3.742;2022-09-17T04:26:06;5.78;;;1.75;;
34019;SDS011;20895;51.034;3.742;2022-09-17T04:28:31;9.30;;;1.67;;
34019;SDS011;20895;51.034;3.742;2022-09-17T04:30:56;11.15;;;1.95;;
34019;SDS011;20895;51.034;3.742;2022-09-17T04:33:21;7.75;;;1.85;;
34019;SDS011;20895;51.034;3.742;2022-09-17T04:35:47;10.63;;;1.65;;
34019;SDS011;20895;51.034;3.742;2022-09-17T04:38:12;8.48;;;1.50;;
34019;SDS011;20895;51.034;3.742;2022-09-17T04:40:42;8.75;;;1.80;;
34019;SDS011;20895;51.034;3.742;2022-09-17T04:43:07;11.45;;;2.33;;
34019;SDS011;20895;51.034;3.742;2022-09-17T04:45:34;5.03;;;1.73;;
34019;SDS011;20895;51.034;3.742;2022-09-17T04:47:59;9.85;;;1.80;;
34019;SDS011;20895;51.034;3.742;2022-09-17T04:50:25;9.23;;;2.03;;
34019;SDS011;20895;51.034;3.742;2022-09-17T04:52:51;16.40;;;2.25;;
34019;SDS011;20895;51.034;3.742;2022-09-17T04:55:16;19.13;;;2.53;;
34019;SDS011;20895;51.034;3.742;2022-09-17T04:57:49;9.75;;;2.25;;
34019;SDS011;20895;51.034;3.742;2022-09-17T05:00:14;14.13;;;5.03;;
34019;SDS011;20895;51.034;3.742;2022-09-17T05:02:40;12.98;;;1.92;;
34019;SDS011;20895;51.034;3.742;2022-09-17T05:05:05;10.25;;;2.40;;
34019;SDS011;20895;51.034;3.742;2022-09-17T05:07:31;15.10;;;5.43;;
34019;SDS011;20895;51.034;3.742;2022-09-17T05:09:56;11.95;;;2.13;;
34019;SDS011;20895;51.034;3.742;2022-09-17T05:12:22;15.25;;;2.85;;
34019;SDS011;20895;51.034;3.742;2022-09-17T05:14:47;15.13;;;3.55;;
34019;SDS011;20895;51.034;3.742;2022-09-17T05:17:12;10.23;;;1.73;;
34019;SDS011;20895;51.034;3.742;2022-09-17T05:19:37;10.73;;;3.05;;
34019;SDS011;20895;51.034;3.742;2022-09-17T05:22:03;14.23;;;3.03;;
34019;SDS011;20895;51.034;3.742;2022-09-17T05:24:28;12.30;;;2.40;;
34019;SDS011;20895;51.034;3.742;2022-09-17T05:26:53;15.48;;;2.80;;
34019;SDS011;20895;51.034;3.742;2022-09-17T05:29:19;10.80;;;2.42;;
34019;SDS011;20895;51.034;3.742;2022-09-17T05:31:44;12.10;;;2.97;;
34019;SDS011;20895;51.034;3.742;2022-09-17T05:34:09;13.60;;;1.92;;
34019;SDS011;20895;51.034;3.742;2022-09-17T05:36:34;12.60;;;1.95;;
34019;SDS011;20895;51.034;3.742;2022-09-17T05:39:00;10.57;;;2.55;;
34019;SDS011;20895;51.034;3.742;2022-09-17T05:41:25;9.65;;;1.90;;
34019;SDS011;20895;51.034;3.742;2022-09-17T05:43:50;7.50;;;1.73;;
34019;SDS011;20895;51.034;3.742;2022-09-17T05:46:16;9.07;;;1.83;;
34019;SDS011;20895;51.034;3.742;2022-09-17T05:48:41;8.43;;;2.15;;
34019;SDS011;20895;51.034;3.742;2022-09-17T05:51:07;8.52;;;1.77;;
34019;SDS011;20895;51.034;3.742;2022-09-17T05:53:32;7.65;;;1.55;;
34019;SDS011;20895;51.034;3.742;2022-09-17T05:55:58;11.40;;;2.17;;
34019;SDS011;20895;51.034;3.742;2022-09-17T05:58:23;10.57;;;3.80;;
34019;SDS011;20895;51.034;3.742;2022-09-17T06:00:48;8.60;;;1.77;;
34019;SDS011;20895;51.034;3.742;2022-09-17T06:03:15;9.55;;;1.35;;
34019;SDS011;20895;51.034;3.742;2022-09-17T06:05:41;6.32;;;1.30;;
34019;SDS011;20895;51.034;3.742;2022-09-17T06:08:07;10.13;;;2.72;;
34019;SDS011;20895;51.034;3.742;2022-09-17T06:10:36;6.30;;;2.25;;
34019;SDS011;20895;51.034;3.742;2022-09-17T06:13:02;8.45;;;1.77;;
34019;SDS011;20895;51.034;3.742;2022-09-17T06:15:27;8.65;;;2.47;;
34019;SDS011;20895;51.034;3.742;2022-09-17T06:17:53;9.88;;;1.92;;
34019;SDS011;20895;51.034;3.742;2022-09-17T06:20:18;10.13;;;1.60;;
34019;SDS011;20895;51.034;3.742;2022-09-17T06:22:44;14.02;;;1.95;;
34019;SDS011;20895;51.034;3.742;2022-09-17T06:25:09;7.05;;;1.60;;
34019;SDS011;20895;51.034;3.742;2022-09-17T06:27:35;9.02;;;1.63;;
34019;SDS011;20895;51.034;3.742;2022-09-17T06:30:00;12.13;;;1.77;;
34019;SDS011;20895;51.034;3.742;2022-09-17T06:32:26;9.52;;;1.33;;
34019;SDS011;20895;51.034;3.742;2022-09-17T06:34:52;7.25;;;1.38;;
34019;SDS011;20895;51.034;3.742;2022-09-17T06:37:18;6.88;;;1.63;;
34019;SDS011;20895;51.034;3.742;2022-09-17T06:39:43;9.73;;;1.52;;
34019;SDS011;20895;51.034;3.742;2022-09-17T06:42:09;8.98;;;1.70;;
34019;SDS011;20895;51.034;3.742;2022-09-17T06:44:35;8.77;;;2.45;;
34019;SDS011;20895;51.034;3.742;2022-09-17T06:47:00;6.65;;;1.27;;
34019;SDS011;20895;51.034;3.742;2022-09-17T06:49:26;7.85;;;1.70;;
34019;SDS011;20895;51.034;3.742;2022-09-17T06:51:52;6.57;;;2.28;;
34019;SDS011;20895;51.034;3.742;2022-09-17T06:54:18;11.02;;;2.03;;
34019;SDS011;20895;51.034;3.742;2022-09-17T06:56:44;11.15;;;1.60;;
34019;SDS011;20895;51.034;3.742;2022-09-17T06:59:10;8.88;;;1.63;;
34019;SDS011;20895;51.034;3.742;2022-09-17T07:01:35;8.07;;;1.67;;
34019;SDS011;20895;51.034;3.742;2022-09-17T07:04:00;5.15;;;1.50;;
34019;SDS011;20895;51.034;3.742;2022-09-17T07:06:26;7.82;;;1.40;;
34019;SDS011;20895;51.034;3.742;2022-09-17T07:08:51;5.82;;;1.63;;
34019;SDS011;20895;51.034;3.742;2022-09-17T07:11:16;6.25;;;1.50;;
34019;SDS011;20895;51.034;3.742;2022-09-17T07:13:42;8.20;;;1.67;;
34019;SDS011;20895;51.034;3.742;2022-09-17T07:16:08;13.05;;;2.33;;
34019;SDS011;20895;51.034;3.742;2022-09-17T07:18:33;6.78;;;1.80;;
34019;SDS011;20895;51.034;3.742;2022-09-17T07:20:59;6.20;;;1.98;;
34019;SDS011;20895;51.034;3.742;2022-09-17T07:23:29;3.35;;;1.05;;
34019;SDS011;20895;51.034;3.742;2022-09-17T07:25:58;4.68;;;1.10;;
34019;SDS011;20895;51.034;3.742;2022-09-17T07:28:24;4.45;;;1.10;;
34019;SDS011;20895;51.034;3.742;2022-09-17T07:30:50;4.82;;;1.00;;
34019;SDS011;20895;51.034;3.742;2022-09-17T07:33:16;9.18;;;1.40;;
34019;SDS011;20895;51.034;3.742;2022-09-17T07:35:50;6.50;;;1.23;;
34019;SDS011;20895;51.034;3.742;2022-09-17T07:38:16;5.75;;;0.95;;
34019;SDS011;20895;51.034;3.742;2022-09-17T07:40:41;8.40;;;1.25;;
34019;SDS011;20895;51.034;3.742;2022-09-17T07:43:06;5.75;;;1.63;;
34019;SDS011;20895;51.034;3.742;2022-09-17T07:45:32;10.18;;;1.90;;
34019;SDS011;20895;51.034;3.742;2022-09-17T07:47:57;6.65;;;1.42;;
34019;SDS011;20895;51.034;3.742;2022-09-17T07:50:22;3.28;;;0.77;;
34019;SDS011;20895;51.034;3.742;2022-09-17T07:52:47;5.13;;;0.90;;
34019;SDS011;20895;51.034;3.742;2022-09-17T07:55:13;6.13;;;1.42;;
34019;SDS011;20895;51.034;3.742;2022-09-17T07:57:39;8.05;;;1.33;;
34019;SDS011;20895;51.034;3.742;2022-09-17T08:00:04;4.07;;;1.00;;
34019;SDS011;20895;51.034;3.742;2022-09-17T08:02:30;2.75;;;1.17;;
34019;SDS011;20895;51.034;3.742;2022-09-17T08:04:55;6.22;;;1.35;;
34019;SDS011;20895;51.034;3.742;2022-09-17T08:07:21;5.72;;;1.50;;
34019;SDS011;20895;51.034;3.742;2022-09-17T08:09:46;3.75;;;1.20;;
34019;SDS011;20895;51.034;3.742;2022-09-17T08:12:11;5.97;;;1.20;;
34019;SDS011;20895;51.034;3.742;2022-09-17T08:14:37;7.45;;;1.30;;
34019;SDS011;20895;51.034;3.742;2022-09-17T08:17:05;5.35;;;1.40;;
34019;SDS011;20895;51.034;3.742;2022-09-17T08:19:30;10.10;;;1.30;;
34019;SDS011;20895;51.034;3.742;2022-09-17T08:21:56;9.02;;;1.95;;
34019;SDS011;20895;51.034;3.742;2022-09-17T08:24:22;7.47;;;1.20;;
34019;SDS011;20895;51.034;3.742;2022-09-17T08:26:47;6.55;;;1.65;;
34019;SDS011;20895;51.034;3.742;2022-09-17T08:29:12;4.50;;;1.10;;
34019;SDS011;20895;51.034;3.742;2022-09-17T08:31:38;7.45;;;1.08;;
34019;SDS011;20895;51.034;3.742;2022-09-17T08:34:06;3.00;;;1.00;;
34019;SDS011;20895;51.034;3.742;2022-09-17T08:36:31;9.93;;;2.50;;
34019;SDS011;20895;51.034;3.742;2022-09-17T08:38:57;5.03;;;1.33;;
34019;SDS011;20895;51.034;3.742;2022-09-17T08:41:27;4.05;;;1.15;;
34019;SDS011;20895;51.034;3.742;2022-09-17T08:46:24;5.75;;;1.10;;
34019;SDS011;20895;51.034;3.742;2022-09-17T08:56:36;7.03;;;1.00;;
34019;SDS011;20895;51.034;3.742;2022-09-17T08:59:21;6.18;;;1.20;;
34019;SDS011;20895;51.034;3.742;2022-09-17T09:02:00;6.07;;;1.75;;
34019;SDS011;20895;51.034;3.742;2022-09-17T09:09:39;4.78;;;0.90;;
34019;SDS011;20895;51.034;3.742;2022-09-17T09:12:09;9.10;;;2.63;;
34019;SDS011;20895;51.034;3.742;2022-09-17T09:17:40;2.83;;;0.70;;
34019;SDS011;20895;51.034;3.742;2022-09-17T09:20:16;4.65;;;1.00;;
34019;SDS011;20895;51.034;3.742;2022-09-17T09:22:45;2.80;;;0.90;;
34019;SDS011;20895;51.034;3.742;2022-09-17T09:25:18;4.63;;;0.88;;
34019;SDS011;20895;51.034;3.742;2022-09-17T09:27:50;5.38;;;1.50;;
34019;SDS011;20895;51.034;3.742;2022-09-17T09:30:17;2.75;;;1.10;;
34019;SDS011;20895;51.034;3.742;2022-09-17T09:35:16;4.00;;;1.30;;
34019;SDS011;20895;51.034;3.742;2022-09-17T09:37:43;5.28;;;1.25;;
34019;SDS011;20895;51.034;3.742;2022-09-17T09:42:54;5.38;;;1.40;;
34019;SDS011;20895;51.034;3.742;2022-09-17T09:45:30;6.55;;;2.38;;
34019;SDS011;20895;51.034;3.742;2022-09-17T09:48:02;3.38;;;0.98;;
34019;SDS011;20895;51.034;3.742;2022-09-17T09:50:55;3.00;;;1.20;;
34019;SDS011;20895;51.034;3.742;2022-09-17T09:53:34;5.95;;;1.50;;
34019;SDS011;20895;51.034;3.742;2022-09-17T09:58:37;7.10;;;1.35;;
34019;SDS011;20895;51.034;3.742;2022-09-17T10:01:07;2.10;;;1.00;;
34019;SDS011;20895;51.034;3.742;2022-09-17T10:03:35;5.00;;;1.20;;
34019;SDS011;20895;51.034;3.742;2022-09-17T10:06:05;6.88;;;1.35;;
34019;SDS011;20895;51.034;3.742;2022-09-17T10:08:32;8.45;;;1.58;;
34019;SDS011;20895;51.034;3.742;2022-09-17T10:13:27;8.57;;;2.35;;
34019;SDS011;20895;51.034;3.742;2022-09-17T10:15:53;8.00;;;2.05;;
34019;SDS011;20895;51.034;3.742;2022-09-17T10:18:19;3.05;;;1.73;;
34019;SDS011;20895;51.034;3.742;2022-09-17T10:20:58;4.93;;;1.70;;
34019;SDS011;20895;51.034;3.742;2022-09-17T10:23:25;3.60;;;1.10;;
34019;SDS011;20895;51.034;3.742;2022-09-17T10:25:51;5.40;;;1.27;;
34019;SDS011;20895;51.034;3.742;2022-09-17T10:28:38;12.45;;;2.00;;
34019;SDS011;20895;51.034;3.742;2022-09-17T10:31:07;6.18;;;1.80;;
34019;SDS011;20895;51.034;3.742;2022-09-17T10:33:36;9.27;;;1.77;;
34019;SDS011;20895;51.034;3.742;2022-09-17T10:36:06;5.43;;;1.65;;
34019;SDS011;20895;51.034;3.742;2022-09-17T10:38:34;8.00;;;2.38;;
34019;SDS011;20895;51.034;3.742;2022-09-17T10:41:18;6.18;;;1.80;;
34019;SDS011;20895;51.034;3.742;2022-09-17T10:43:48;8.05;;;1.50;;
34019;SDS011;20895;51.034;3.742;2022-09-17T10:46:15;8.35;;;1.90;;
34019;SDS011;20895;51.034;3.742;2022-09-17T10:48:43;8.23;;;1.63;;
34019;SDS011;20895;51.034;3.742;2022-09-17T10:51:09;5.07;;;1.33;;
34019;SDS011;20895;51.034;3.742;2022-09-17T10:53:39;5.38;;;1.58;;
34019;SDS011;20895;51.034;3.742;2022-09-17T10:56:22;3.30;;;0.88;;
34019;SDS011;20895;51.034;3.742;2022-09-17T10:58:55;6.63;;;1.08;;
34019;SDS011;20895;51.034;3.742;2022-09-17T11:17:02;9.45;;;1.58;;
34019;SDS011;20895;51.034;3.742;2022-09-17T11:21:56;10.02;;;1.77;;
34019;SDS011;20895;51.034;3.742;2022-09-17T11:32:39;6.97;;;1.33;;
34019;SDS011;20895;51.034;3.742;2022-09-17T11:37:25;9.50;;;1.53;;
34019;SDS011;20895;51.034;3.742;2022-09-17T11:40:26;9.48;;;2.75;;
34019;SDS011;20895;51.034;3.742;2022-09-17T11:43:02;11.88;;;2.58;;
34019;SDS011;20895;51.034;3.742;2022-09-17T11:45:31;8.77;;;2.00;;
34019;SDS011;20895;51.034;3.742;2022-09-17T11:48:11;9.23;;;2.22;;
34019;SDS011;20895;51.034;3.742;2022-09-17T11:53:21;7.88;;;2.05;;
34019;SDS011;20895;51.034;3.742;2022-09-17T11:58:19;7.88;;;1.63;;
34019;SDS011;20895;51.034;3.742;2022-09-17T12:00:51;8.32;;;2.08;;
34019;SDS011;20895;51.034;3.742;2022-09-17T12:06:05;12.73;;;3.55;;
34019;SDS011;20895;51.034;3.742;2022-09-17T12:11:17;7.85;;;2.13;;
34019;SDS011;20895;51.034;3.742;2022-09-17T12:13:45;6.63;;;1.30;;
34019;SDS011;20895;51.034;3.742;2022-09-17T12:16:18;5.22;;;1.50;;
34019;SDS011;20895;51.034;3.742;2022-09-17T12:21:32;8.30;;;2.08;;
34019;SDS011;20895;51.034;3.742;2022-09-17T12:24:05;8.55;;;1.80;;
34019;SDS011;20895;51.034;3.742;2022-09-17T12:34:07;7.35;;;1.85;;
34019;SDS011;20895;51.034;3.742;2022-09-17T12:36:41;5.63;;;1.60;;
34019;SDS011;20895;51.034;3.742;2022-09-17T12:39:18;8.70;;;1.65;;
34019;SDS011;20895;51.034;3.742;2022-09-17T12:49:34;9.65;;;2.80;;
34019;SDS011;20895;51.034;3.742;2022-09-17T12:52:12;8.02;;;1.60;;
34019;SDS011;20895;51.034;3.742;2022-09-17T12:57:30;8.57;;;1.40;;
34019;SDS011;20895;51.034;3.742;2022-09-17T13:00:04;3.95;;;0.85;;
34019;SDS011;20895;51.034;3.742;2022-09-17T13:08:06;7.18;;;1.20;;
34019;SDS011;20895;51.034;3.742;2022-09-17T13:10:45;4.85;;;1.00;;
34019;SDS011;20895;51.034;3.742;2022-09-17T13:19:10;3.30;;;0.95;;
34019;SDS011;20895;51.034;3.742;2022-09-17T13:21:10;8.20;;;1.58;;
34019;SDS011;20895;51.034;3.742;2022-09-17T13:23:38;4.18;;;1.05;;
34019;SDS011;20895;51.034;3.742;2022-09-17T13:26:05;3.95;;;1.10;;
34019;SDS011;20895;51.034;3.742;2022-09-17T13:33:59;9.32;;;1.60;;
34019;SDS011;20895;51.034;3.742;2022-09-17T13:36:34;10.77;;;1.30;;
34019;SDS011;20895;51.034;3.742;2022-09-17T13:39:00;7.43;;;1.20;;
34019;SDS011;20895;51.034;3.742;2022-09-17T13:41:26;5.90;;;1.33;;
34019;SDS011;20895;51.034;3.742;2022-09-17T13:43:52;5.88;;;1.52;;
34019;SDS011;20895;51.034;3.742;2022-09-17T13:46:23;6.05;;;0.98;;
34019;SDS011;20895;51.034;3.742;2022-09-17T13:48:51;4.60;;;1.15;;
34019;SDS011;20895;51.034;3.742;2022-09-17T13:54:00;8.65;;;2.08;;
34019;SDS011;20895;51.034;3.742;2022-09-17T13:56:39;6.43;;;2.15;;
34019;SDS011;20895;51.034;3.742;2022-09-17T14:04:44;6.75;;;1.27;;
34019;SDS011;20895;51.034;3.742;2022-09-17T14:15:01;2.30;;;0.60;;
34019;SDS011;20895;51.034;3.742;2022-09-17T14:20:10;4.88;;;1.05;;
34019;SDS011;20895;51.034;3.742;2022-09-17T14:22:35;4.47;;;0.70;;
34019;SDS011;20895;51.034;3.742;2022-09-17T14:25:01;2.55;;;0.70;;
34019;SDS011;20895;51.034;3.742;2022-09-17T14:27:32;3.42;;;0.60;;
34019;SDS011;20895;51.034;3.742;2022-09-17T14:30:13;2.78;;;0.80;;
34019;SDS011;20895;51.034;3.742;2022-09-17T14:32:41;5.07;;;1.10;;
34019;SDS011;20895;51.034;3.742;2022-09-17T14:35:55;2.30;;;0.60;;
34019;SDS011;20895;51.034;3.742;2022-09-17T14:37:54;2.35;;;0.85;;
34019;SDS011;20895;51.034;3.742;2022-09-17T14:40:21;2.00;;;0.60;;
34019;SDS011;20895;51.034;3.742;2022-09-17T14:42:48;3.08;;;0.85;;
34019;SDS011;20895;51.034;3.742;2022-09-17T14:45:15;5.15;;;0.90;;
34019;SDS011;20895;51.034;3.742;2022-09-17T14:47:41;5.10;;;0.93;;
34019;SDS011;20895;51.034;3.742;2022-09-17T14:50:25;5.43;;;1.20;;
34019;SDS011;20895;51.034;3.742;2022-09-17T14:55:20;5.20;;;0.93;;
34019;SDS011;20895;51.034;3.742;2022-09-17T14:57:47;5.32;;;2.05;;
34019;SDS011;20895;51.034;3.742;2022-09-17T15:00:23;8.77;;;1.10;;
34019;SDS011;20895;51.034;3.742;2022-09-17T15:02:49;6.63;;;1.10;;
34019;SDS011;20895;51.034;3.742;2022-09-17T15:05:35;7.38;;;1.15;;
34019;SDS011;20895;51.034;3.742;2022-09-17T15:10:53;3.67;;;1.40;;
34019;SDS011;20895;51.034;3.742;2022-09-17T15:13:20;4.28;;;1.83;;
34019;SDS011;20895;51.034;3.742;2022-09-17T15:15:51;5.57;;;1.50;;
34019;SDS011;20895;51.034;3.742;2022-09-17T15:18:17;2.72;;;0.90;;
34019;SDS011;20895;51.034;3.742;2022-09-17T15:20:42;3.80;;;1.33;;
34019;SDS011;20895;51.034;3.742;2022-09-17T15:23:13;6.03;;;1.33;;
34019;SDS011;20895;51.034;3.742;2022-09-17T15:25:40;4.95;;;1.00;;
34019;SDS011;20895;51.034;3.742;2022-09-17T15:28:15;4.32;;;1.00;;
34019;SDS011;20895;51.034;3.742;2022-09-17T15:30:42;4.38;;;1.25;;
34019;SDS011;20895;51.034;3.742;2022-09-17T15:33:10;4.45;;;1.30;;
34019;SDS011;20895;51.034;3.742;2022-09-17T15:35:36;5.80;;;1.35;;
34019;SDS011;20895;51.034;3.742;2022-09-17T15:38:02;7.15;;;1.60;;
34019;SDS011;20895;51.034;3.742;2022-09-17T15:40:42;6.07;;;2.00;;
34019;SDS011;20895;51.034;3.742;2022-09-17T15:43:24;4.95;;;1.60;;
34019;SDS011;20895;51.034;3.742;2022-09-17T15:45:51;3.83;;;1.60;;
34019;SDS011;20895;51.034;3.742;2022-09-17T15:50:55;8.30;;;2.10;;
34019;SDS011;20895;51.034;3.742;2022-09-17T15:53:27;4.82;;;1.55;;
34019;SDS011;20895;51.034;3.742;2022-09-17T15:58:20;5.27;;;1.50;;
34019;SDS011;20895;51.034;3.742;2022-09-17T16:00:47;7.10;;;2.95;;
34019;SDS011;20895;51.034;3.742;2022-09-17T16:08:45;7.45;;;2.38;;
34019;SDS011;20895;51.034;3.742;2022-09-17T16:11:11;13.45;;;3.15;;
34019;SDS011;20895;51.034;3.742;2022-09-17T16:13:36;7.15;;;1.63;;
34019;SDS011;20895;51.034;3.742;2022-09-17T16:16:02;6.38;;;1.88;;
34019;SDS011;20895;51.034;3.742;2022-09-17T16:18:28;7.28;;;1.63;;
34019;SDS011;20895;51.034;3.742;2022-09-17T16:20:53;7.28;;;1.95;;
34019;SDS011;20895;51.034;3.742;2022-09-17T16:23:18;7.53;;;1.67;;
34019;SDS011;20895;51.034;3.742;2022-09-17T16:25:43;9.50;;;3.03;;
34019;SDS011;20895;51.034;3.742;2022-09-17T16:28:10;7.13;;;1.73;;
34019;SDS011;20895;51.034;3.742;2022-09-17T16:30:36;9.90;;;2.60;;
34019;SDS011;20895;51.034;3.742;2022-09-17T16:33:01;8.63;;;2.33;;
34019;SDS011;20895;51.034;3.742;2022-09-17T16:35:28;6.75;;;1.88;;
34019;SDS011;20895;51.034;3.742;2022-09-17T16:37:54;6.10;;;1.63;;
34019;SDS011;20895;51.034;3.742;2022-09-17T16:40:20;4.95;;;1.58;;
34019;SDS011;20895;51.034;3.742;2022-09-17T16:42:47;10.48;;;4.15;;
34019;SDS011;20895;51.034;3.742;2022-09-17T16:45:13;10.75;;;2.42;;
34019;SDS011;20895;51.034;3.742;2022-09-17T16:47:39;7.63;;;1.80;;
34019;SDS011;20895;51.034;3.742;2022-09-17T16:50:06;9.57;;;2.83;;
34019;SDS011;20895;51.034;3.742;2022-09-17T16:52:32;8.40;;;2.00;;
34019;SDS011;20895;51.034;3.742;2022-09-17T16:54:57;8.90;;;2.10;;
34019;SDS011;20895;51.034;3.742;2022-09-17T16:57:22;11.05;;;2.15;;
34019;SDS011;20895;51.034;3.742;2022-09-17T16:59:48;4.22;;;1.23;;
34019;SDS011;20895;51.034;3.742;2022-09-17T17:02:13;6.95;;;1.48;;
34019;SDS011;20895;51.034;3.742;2022-09-17T17:04:38;3.97;;;1.27;;
34019;SDS011;20895;51.034;3.742;2022-09-17T17:07:03;5.93;;;1.60;;
34019;SDS011;20895;51.034;3.742;2022-09-17T17:09:29;5.50;;;1.20;;
34019;SDS011;20895;51.034;3.742;2022-09-17T17:11:54;3.22;;;1.10;;
34019;SDS011;20895;51.034;3.742;2022-09-17T17:14:20;7.55;;;2.40;;
34019;SDS011;20895;51.034;3.742;2022-09-17T17:16:45;6.40;;;1.30;;
34019;SDS011;20895;51.034;3.742;2022-09-17T17:19:10;5.88;;;1.52;;
34019;SDS011;20895;51.034;3.742;2022-09-17T17:21:36;4.82;;;1.13;;
34019;SDS011;20895;51.034;3.742;2022-09-17T17:24:01;3.58;;;1.00;;
34019;SDS011;20895;51.034;3.742;2022-09-17T17:26:27;5.13;;;1.23;;
34019;SDS011;20895;51.034;3.742;2022-09-17T17:28:52;4.57;;;1.40;;
34019;SDS011;20895;51.034;3.742;2022-09-17T17:31:17;7.28;;;2.08;;
34019;SDS011;20895;51.034;3.742;2022-09-17T17:33:43;8.88;;;1.52;;
34019;SDS011;20895;51.034;3.742;2022-09-17T17:36:08;5.32;;;1.23;;
34019;SDS011;20895;51.034;3.742;2022-09-17T17:38:34;3.97;;;1.05;;
34019;SDS011;20895;51.034;3.742;2022-09-17T17:41:06;6.88;;;1.50;;
34019;SDS011;20895;51.034;3.742;2022-09-17T17:43:32;5.05;;;1.17;;
34019;SDS011;20895;51.034;3.742;2022-09-17T17:45:58;3.20;;;1.13;;
34019;SDS011;20895;51.034;3.742;2022-09-17T17:48:23;4.18;;;1.17;;
34019;SDS011;20895;51.034;3.742;2022-09-17T17:50:48;7.18;;;1.80;;
34019;SDS011;20895;51.034;3.742;2022-09-17T17:53:13;6.43;;;2.22;;
34019;SDS011;20895;51.034;3.742;2022-09-17T17:55:39;5.32;;;1.45;;
34019;SDS011;20895;51.034;3.742;2022-09-17T17:58:04;7.93;;;1.45;;
34019;SDS011;20895;51.034;3.742;2022-09-17T18:00:29;5.88;;;1.20;;
34019;SDS011;20895;51.034;3.742;2022-09-17T18:02:54;8.00;;;1.85;;
34019;SDS011;20895;51.034;3.742;2022-09-17T18:05:20;5.20;;;1.42;;